Time;durP1;ratioP1;P1;durP2;ratioP2;P2;SDS_P1;SDS_P2;PMS_P1;PMS_P2;Temp;Humidity;BMP_temperature;BMP_pressure;BME280_temperature;BME280_humidity;BME280_pressure;Samples;Min_cycle;Max_cycle;Signal;HPM_P1;HPM_P2
2023/04/24 00:02:10;;;;;;;0.80;0.80;;;;;;;;;;5033170;28;20464;-61
2023/04/24 00:04:40;;;;;;;2.10;1.00;;;;;;;;;;5031509;28;20030;-61
2023/04/24 00:07:06;;;;;;;1.63;1.13;;;;;;;;;;5031475;28;20029;-61
2023/04/24 00:09:32;;;;;;;0.70;0.70;;;;;;;;;;5027945;28;20033;-61
2023/04/24 00:11:57;;;;;;;0.88;0.88;;;;;;;;;;5025282;28;20484;-61
2023/04/24 00:14:23;;;;;;;1.88;1.10;;;;;;;;;;5013101;28;20072;-61
2023/04/24 00:16:49;;;;;;;1.38;1.08;;;;;;;;;;5013628;28;20041;-61
2023/04/24 00:19:14;;;;;;;0.88;0.82;;;;;;;;;;5019868;28;20224;-61
2023/04/24 00:21:41;;;;;;;1.85;1.00;;;;;;;;;;5022265;28;20048;-62
2023/04/24 00:24:08;;;;;;;2.35;1.00;;;;;;;;;;5027900;28;20069;-61
2023/04/24 00:26:34;;;;;;;1.27;1.10;;;;;;;;;;5013340;28;20081;-61
2023/04/24 00:28:59;;;;;;;1.95;0.95;;;;;;;;;;5018822;28;20392;-61
2023/04/24 00:31:25;;;;;;;1.65;1.10;;;;;;;;;;5018080;28;20041;-61
2023/04/24 00:33:50;;;;;;;3.35;1.10;;;;;;;;;;5017047;28;20041;-61
2023/04/24 00:36:16;;;;;;;1.45;1.08;;;;;;;;;;5028768;28;20614;-62
2023/04/24 00:38:41;;;;;;;1.98;1.20;;;;;;;;;;5031436;28;20117;-61
2023/04/24 00:41:07;;;;;;;2.05;1.10;;;;;;;;;;5026907;28;20104;-61
2023/04/24 00:43:32;;;;;;;1.15;1.10;;;;;;;;;;5028078;28;20087;-61
2023/04/24 00:45:59;;;;;;;1.33;1.23;;;;;;;;;;5028858;28;20033;-61
2023/04/24 00:48:25;;;;;;;1.77;1.08;;;;;;;;;;5033889;28;20064;-61
2023/04/24 00:50:50;;;;;;;2.35;1.38;;;;;;;;;;5014245;28;20057;-61
2023/04/24 00:53:16;;;;;;;2.08;1.30;;;;;;;;;;5018747;28;20061;-61
2023/04/24 00:55:41;;;;;;;2.92;1.30;;;;;;;;;;5022157;28;20029;-61
2023/04/24 00:58:07;;;;;;;1.60;1.25;;;;;;;;;;5026630;28;20037;-60
2023/04/24 01:00:33;;;;;;;1.70;1.20;;;;;;;;;;5021951;28;20037;-61
2023/04/24 01:03:01;;;;;;;2.55;1.27;;;;;;;;;;5012001;28;20033;-61
2023/04/24 01:05:27;;;;;;;1.38;1.20;;;;;;;;;;5026906;28;20108;-61
2023/04/24 01:07:52;;;;;;;3.40;1.40;;;;;;;;;;5019279;28;20491;-61
2023/04/24 01:10:20;;;;;;;1.63;1.20;;;;;;;;;;5016544;28;20685;-61
2023/04/24 01:12:46;;;;;;;3.00;1.38;;;;;;;;;;5022755;28;20491;-61
2023/04/24 01:15:11;;;;;;;2.22;1.45;;;;;;;;;;5022437;28;20117;-61
2023/04/24 01:17:38;;;;;;;3.17;1.40;;;;;;;;;;5014399;28;20483;-61
2023/04/24 01:20:05;;;;;;;2.22;1.42;;;;;;;;;;5023573;28;20045;-61
2023/04/24 01:22:30;;;;;;;1.77;1.58;;;;;;;;;;5031879;28;20037;-61
2023/04/24 01:24:56;;;;;;;1.98;1.40;;;;;;;;;;5030238;28;20033;-62
2023/04/24 01:27:22;;;;;;;1.90;1.50;;;;;;;;;;5027708;28;20698;-61
2023/04/24 01:29:49;;;;;;;2.35;1.50;;;;;;;;;;5020893;28;20033;-62
2023/04/24 01:32:14;;;;;;;1.75;1.40;;;;;;;;;;5027656;28;20025;-62
2023/04/24 01:34:40;;;;;;;2.38;1.50;;;;;;;;;;5017580;28;20112;-62
2023/04/24 01:37:06;;;;;;;2.25;1.70;;;;;;;;;;5011936;28;20058;-62
2023/04/24 01:39:33;;;;;;;5.50;2.10;;;;;;;;;;5011966;28;20026;-62
2023/04/24 01:42:00;;;;;;;2.47;1.65;;;;;;;;;;5028978;28;20468;-62
2023/04/24 01:44:26;;;;;;;3.35;2.10;;;;;;;;;;5028281;28;20031;-61
2023/04/24 01:46:53;;;;;;;4.40;2.38;;;;;;;;;;5027524;28;20029;-61
2023/04/24 01:49:19;;;;;;;3.42;2.10;;;;;;;;;;5010672;28;20037;-62
2023/04/24 01:51:45;;;;;;;3.83;2.53;;;;;;;;;;5026394;28;20042;-61
2023/04/24 01:54:10;;;;;;;6.03;2.70;;;;;;;;;;5027803;28;20101;-62
2023/04/24 01:56:39;;;;;;;4.70;2.45;;;;;;;;;;5028232;28;20040;-61
2023/04/24 01:59:06;;;;;;;5.68;3.38;;;;;;;;;;5028275;28;20404;-61
2023/04/24 02:01:37;;;;;;;7.63;3.17;;;;;;;;;;5029532;28;20442;-62
2023/04/24 02:04:04;;;;;;;5.22;3.53;;;;;;;;;;5013445;28;20053;-61
2023/04/24 02:06:31;;;;;;;4.20;2.58;;;;;;;;;;5011702;28;20038;-62
2023/04/24 02:08:59;;;;;;;5.68;3.65;;;;;;;;;;5014469;28;20377;-62
2023/04/24 02:11:25;;;;;;;5.93;3.40;;;;;;;;;;5030816;28;20108;-61
2023/04/24 02:13:51;;;;;;;7.43;3.45;;;;;;;;;;5020855;28;20450;-61
2023/04/24 02:16:17;;;;;;;5.03;3.05;;;;;;;;;;5029463;28;20030;-62
2023/04/24 02:18:42;;;;;;;8.45;3.15;;;;;;;;;;5025314;28;20388;-60
2023/04/24 02:21:07;;;;;;;6.10;3.20;;;;;;;;;;5030722;28;20071;-62
2023/04/24 02:23:33;;;;;;;5.43;3.33;;;;;;;;;;5030006;28;20419;-62
2023/04/24 02:25:58;;;;;;;7.50;3.47;;;;;;;;;;5031326;28;20064;-62
2023/04/24 02:28:24;;;;;;;5.30;3.35;;;;;;;;;;5030456;28;20901;-62
2023/04/24 02:30:50;;;;;;;7.05;3.75;;;;;;;;;;5024695;28;20064;-62
2023/04/24 02:33:15;;;;;;;4.43;2.92;;;;;;;;;;5024481;28;20041;-62
2023/04/24 02:35:41;;;;;;;5.05;2.88;;;;;;;;;;5018154;28;20030;-62
2023/04/24 02:38:06;;;;;;;8.77;3.17;;;;;;;;;;5011083;28;20050;-62
2023/04/24 02:40:32;;;;;;;7.53;4.53;;;;;;;;;;5027510;28;20503;-63
2023/04/24 02:42:57;;;;;;;6.20;3.80;;;;;;;;;;5020245;28;20460;-63
2023/04/24 02:45:22;;;;;;;6.15;4.00;;;;;;;;;;5025968;28;20116;-63
2023/04/24 02:47:48;;;;;;;6.20;3.78;;;;;;;;;;5030051;28;20043;-62
2023/04/24 02:50:13;;;;;;;6.47;3.53;;;;;;;;;;5014566;28;20065;-62
2023/04/24 02:52:38;;;;;;;7.78;4.80;;;;;;;;;;5025247;28;20029;-62
2023/04/24 02:55:04;;;;;;;7.63;4.40;;;;;;;;;;5011382;28;20499;-62
2023/04/24 02:57:30;;;;;;;9.98;4.47;;;;;;;;;;5012676;28;20030;-62
2023/04/24 02:59:55;;;;;;;12.55;6.00;;;;;;;;;;5011674;28;20499;-62
2023/04/24 03:02:21;;;;;;;6.68;4.18;;;;;;;;;;5030348;28;20037;-62
2023/04/24 03:04:47;;;;;;;11.23;6.38;;;;;;;;;;5028033;28;20107;-62
2023/04/24 03:07:14;;;;;;;13.43;5.55;;;;;;;;;;5025628;28;20365;-62
2023/04/24 03:09:40;;;;;;;10.40;5.93;;;;;;;;;;5015150;28;20088;-62
2023/04/24 03:12:05;;;;;;;9.00;4.95;;;;;;;;;;5025299;28;20029;-62
2023/04/24 03:14:31;;;;;;;12.75;6.18;;;;;;;;;;5015420;28;20423;-62
2023/04/24 03:16:56;;;;;;;12.57;6.50;;;;;;;;;;5027567;28;20095;-62
2023/04/24 03:19:22;;;;;;;11.98;6.53;;;;;;;;;;5028744;28;20064;-62
2023/04/24 03:21:48;;;;;;;9.52;5.72;;;;;;;;;;5032169;28;20040;-63
2023/04/24 03:24:13;;;;;;;14.45;7.13;;;;;;;;;;5034150;28;20452;-62
2023/04/24 03:26:39;;;;;;;15.88;7.20;;;;;;;;;;5033395;28;20042;-62
2023/04/24 03:29:04;;;;;;;9.85;6.13;;;;;;;;;;5020285;28;20468;-62
2023/04/24 03:31:29;;;;;;;14.73;8.07;;;;;;;;;;5029654;28;20037;-62
2023/04/24 03:33:55;;;;;;;16.15;7.57;;;;;;;;;;5033690;28;20185;-62
2023/04/24 03:36:20;;;;;;;11.85;7.18;;;;;;;;;;5026261;28;20102;-62
2023/04/24 03:38:46;;;;;;;13.48;7.40;;;;;;;;;;5017337;28;20392;-62
2023/04/24 03:41:11;;;;;;;13.35;7.13;;;;;;;;;;5019036;28;20499;-61
2023/04/24 03:43:39;;;;;;;12.10;6.97;;;;;;;;;;5017602;28;20073;-63
2023/04/24 03:46:04;;;;;;;11.30;6.97;;;;;;;;;;5014081;28;20038;-62
2023/04/24 03:48:30;;;;;;;13.43;7.70;;;;;;;;;;5022991;28;20034;-62
2023/04/24 03:50:55;;;;;;;15.15;8.38;;;;;;;;;;5028594;28;20034;-62
2023/04/24 03:53:20;;;;;;;11.50;6.78;;;;;;;;;;5026519;28;20021;-61
2023/04/24 03:55:46;;;;;;;15.23;8.40;;;;;;;;;;5033803;28;20080;-61
2023/04/24 03:58:13;;;;;;;16.67;8.68;;;;;;;;;;5028211;28;20030;-62
2023/04/24 04:00:40;;;;;;;13.20;8.18;;;;;;;;;;5016040;28;20060;-61
2023/04/24 04:03:05;;;;;;;12.32;7.20;;;;;;;;;;5013651;28;20026;-62
2023/04/24 04:05:31;;;;;;;14.98;7.63;;;;;;;;;;5011366;28;20041;-62
2023/04/24 04:07:56;;;;;;;16.10;9.13;;;;;;;;;;5027862;28;20056;-61
2023/04/24 04:10:22;;;;;;;14.00;8.50;;;;;;;;;;5016563;28;20405;-61
2023/04/24 04:12:47;;;;;;;13.55;7.25;;;;;;;;;;5017340;28;20061;-62
2023/04/24 04:15:12;;;;;;;14.27;8.05;;;;;;;;;;5031101;28;20104;-61
2023/04/24 04:17:38;;;;;;;11.80;6.93;;;;;;;;;;5029623;28;20259;-61
2023/04/24 04:20:09;;;;;;;14.10;6.82;;;;;;;;;;5014875;28;20452;-61
2023/04/24 04:22:34;;;;;;;17.95;7.95;;;;;;;;;;5029951;28;20037;-61
2023/04/24 04:25:00;;;;;;;14.55;7.43;;;;;;;;;;5025802;28;20083;-61
2023/04/24 04:27:26;;;;;;;14.45;8.40;;;;;;;;;;5027598;28;20039;-62
2023/04/24 04:29:52;;;;;;;15.43;8.57;;;;;;;;;;5015940;28;20088;-61
2023/04/24 04:32:18;;;;;;;12.82;7.55;;;;;;;;;;5021110;28;20029;-61
2023/04/24 04:34:45;;;;;;;18.23;9.35;;;;;;;;;;5034005;28;20088;-61
2023/04/24 04:37:12;;;;;;;15.40;8.25;;;;;;;;;;5016836;28;20388;-61
2023/04/24 04:39:37;;;;;;;11.48;6.85;;;;;;;;;;5013295;28;20037;-61
2023/04/24 04:42:03;;;;;;;12.38;7.28;;;;;;;;;;5027057;28;20049;-61
2023/04/24 04:44:30;;;;;;;14.60;6.53;;;;;;;;;;5014344;28;20603;-61
2023/04/24 04:46:56;;;;;;;19.77;7.63;;;;;;;;;;5018011;28;20468;-61
2023/04/24 04:49:23;;;;;;;19.33;8.73;;;;;;;;;;5030543;28;20094;-61
2023/04/24 04:51:49;;;;;;;17.35;8.57;;;;;;;;;;5031716;28;20460;-61
2023/04/24 04:54:15;;;;;;;14.10;8.50;;;;;;;;;;5028276;28;20152;-61
2023/04/24 04:56:41;;;;;;;12.45;6.60;;;;;;;;;;5013293;28;20488;-61
2023/04/24 04:59:06;;;;;;;10.13;6.55;;;;;;;;;;5020717;28;20034;-62
2023/04/24 05:01:31;;;;;;;16.65;8.48;;;;;;;;;;5015881;28;20092;-62
2023/04/24 05:03:57;;;;;;;12.07;7.88;;;;;;;;;;5015805;28;20123;-62
2023/04/24 05:06:22;;;;;;;14.25;7.55;;;;;;;;;;5019002;28;20095;-62
2023/04/24 05:08:48;;;;;;;13.25;6.88;;;;;;;;;;5023938;28;20036;-62
2023/04/24 05:11:14;;;;;;;14.05;6.82;;;;;;;;;;5032327;28;20041;-62
2023/04/24 05:13:40;;;;;;;13.02;6.53;;;;;;;;;;5019187;28;20477;-62
2023/04/24 05:16:05;;;;;;;10.88;6.55;;;;;;;;;;5012824;28;20037;-62
2023/04/24 05:18:31;;;;;;;12.48;8.13;;;;;;;;;;5024073;28;20161;-63
2023/04/24 05:20:56;;;;;;;15.05;8.18;;;;;;;;;;5030981;28;20033;-60
2023/04/24 05:23:21;;;;;;;13.85;6.93;;;;;;;;;;5029818;28;20693;-61
2023/04/24 05:25:47;;;;;;;11.82;7.28;;;;;;;;;;5027174;28;20037;-63
2023/04/24 05:28:12;;;;;;;11.27;6.00;;;;;;;;;;5023919;28;20029;-65
2023/04/24 05:30:38;;;;;;;9.65;5.20;;;;;;;;;;5028152;28;20468;-64
2023/04/24 05:33:03;;;;;;;10.23;5.72;;;;;;;;;;5030144;28;20365;-62
2023/04/24 05:35:29;;;;;;;11.48;6.57;;;;;;;;;;5031308;28;20029;-66
2023/04/24 05:37:54;;;;;;;13.93;7.40;;;;;;;;;;5025496;28;20068;-65
2023/04/24 05:40:20;;;;;;;11.50;6.03;;;;;;;;;;5028724;28;20541;-64
2023/04/24 05:42:45;;;;;;;9.43;5.95;;;;;;;;;;5028755;28;20116;-65
2023/04/24 05:45:16;;;;;;;9.15;5.97;;;;;;;;;;5027558;28;20080;-66
2023/04/24 05:47:41;;;;;;;9.23;5.90;;;;;;;;;;5030047;28;20448;-66
2023/04/24 05:50:07;;;;;;;10.57;6.43;;;;;;;;;;5029836;28;20064;-66
2023/04/24 05:52:33;;;;;;;9.02;5.25;;;;;;;;;;5030962;28;20116;-64
2023/04/24 05:54:58;;;;;;;9.65;5.35;;;;;;;;;;5029476;28;20040;-64
2023/04/24 05:57:24;;;;;;;10.07;5.32;;;;;;;;;;5030834;28;20029;-65
2023/04/24 05:59:50;;;;;;;9.05;5.45;;;;;;;;;;5031163;28;20416;-66
2023/04/24 06:02:15;;;;;;;8.60;5.13;;;;;;;;;;5028513;28;20075;-64
2023/04/24 06:04:41;;;;;;;9.55;5.25;;;;;;;;;;5018356;28;20037;-66
2023/04/24 06:07:06;;;;;;;11.20;5.63;;;;;;;;;;5030407;28;20383;-67
2023/04/24 06:09:32;;;;;;;13.02;7.43;;;;;;;;;;5011972;28;20036;-65
2023/04/24 06:11:58;;;;;;;10.25;5.55;;;;;;;;;;5020900;28;20042;-66
2023/04/24 06:14:23;;;;;;;14.82;7.57;;;;;;;;;;5028635;28;20398;-66
2023/04/24 06:16:49;;;;;;;11.85;6.75;;;;;;;;;;5028028;28;20038;-64
2023/04/24 06:19:14;;;;;;;12.20;7.35;;;;;;;;;;5029817;28;20041;-65
2023/04/24 06:21:40;;;;;;;10.25;6.00;;;;;;;;;;5030536;28;20040;-65
2023/04/24 06:24:06;;;;;;;13.65;7.63;;;;;;;;;;5029090;28;20029;-65
2023/04/24 06:26:31;;;;;;;12.43;7.20;;;;;;;;;;5030467;28;20101;-65
2023/04/24 06:28:58;;;;;;;9.20;5.70;;;;;;;;;;5026754;28;20121;-63
2023/04/24 06:31:24;;;;;;;12.55;7.22;;;;;;;;;;5029085;28;20025;-64
2023/04/24 06:33:50;;;;;;;14.07;5.60;;;;;;;;;;5025885;28;20036;-65
2023/04/24 06:36:15;;;;;;;11.18;7.00;;;;;;;;;;5025594;28;20041;-64
2023/04/24 06:38:41;;;;;;;9.27;5.15;;;;;;;;;;5033762;28;20060;-64
2023/04/24 06:41:06;;;;;;;9.60;6.15;;;;;;;;;;5030254;28;20394;-65
2023/04/24 06:43:32;;;;;;;12.93;6.35;;;;;;;;;;5034327;28;20029;-64
2023/04/24 06:45:58;;;;;;;10.68;6.22;;;;;;;;;;5032302;28;20458;-64
2023/04/24 06:48:25;;;;;;;8.15;4.70;;;;;;;;;;5034294;28;20045;-65
2023/04/24 06:50:50;;;;;;;9.73;5.78;;;;;;;;;;5032378;28;20490;-66
2023/04/24 06:53:16;;;;;;;9.20;5.78;;;;;;;;;;5033500;28;20038;-63
2023/04/24 06:55:43;;;;;;;9.88;5.32;;;;;;;;;;5032366;28;20029;-63
2023/04/24 06:58:08;;;;;;;8.57;5.57;;;;;;;;;;5024468;28;20475;-64
2023/04/24 07:00:34;;;;;;;11.30;6.35;;;;;;;;;;5037626;28;20052;-64
2023/04/24 07:02:59;;;;;;;10.80;6.13;;;;;;;;;;5037991;28;20484;-64
2023/04/24 07:05:25;;;;;;;13.35;7.13;;;;;;;;;;5031131;28;20430;-64
2023/04/24 07:07:51;;;;;;;12.57;7.10;;;;;;;;;;5034187;28;20056;-62
2023/04/24 07:10:17;;;;;;;9.82;6.40;;;;;;;;;;5050134;28;20537;-62
2023/04/24 07:12:42;;;;;;;9.52;6.10;;;;;;;;;;5034219;28;20034;-65
2023/04/24 07:15:08;;;;;;;11.60;6.53;;;;;;;;;;5033917;28;20129;-65
2023/04/24 07:17:34;;;;;;;9.40;6.15;;;;;;;;;;5033951;28;20037;-63
2023/04/24 07:20:00;;;;;;;11.45;5.60;;;;;;;;;;5032599;28;20502;-61
2023/04/24 07:22:25;;;;;;;9.32;5.65;;;;;;;;;;5033597;28;20041;-64
2023/04/24 07:24:51;;;;;;;8.93;5.55;;;;;;;;;;5034023;28;20526;-63
2023/04/24 07:27:16;;;;;;;9.48;4.47;;;;;;;;;;5034247;28;20033;-65
2023/04/24 07:29:42;;;;;;;6.88;4.30;;;;;;;;;;5031639;28;20029;-62
2023/04/24 07:32:07;;;;;;;7.10;4.50;;;;;;;;;;5033595;28;20091;-64
2023/04/24 07:34:33;;;;;;;6.95;4.30;;;;;;;;;;5033117;28;20029;-63
2023/04/24 07:36:59;;;;;;;5.30;3.55;;;;;;;;;;5033250;28;20041;-68
2023/04/24 07:39:24;;;;;;;6.00;3.83;;;;;;;;;;5029098;28;20041;-66
2023/04/24 07:41:50;;;;;;;5.88;3.42;;;;;;;;;;5033306;28;20468;-67
2023/04/24 07:44:15;;;;;;;7.95;4.43;;;;;;;;;;5032841;28;20049;-66
2023/04/24 07:46:41;;;;;;;6.95;4.18;;;;;;;;;;5032709;28;20557;-65
2023/04/24 07:49:06;;;;;;;4.05;2.90;;;;;;;;;;5033217;28;20117;-65
2023/04/24 07:51:34;;;;;;;4.85;2.72;;;;;;;;;;5032479;28;20029;-66
2023/04/24 07:54:00;;;;;;;5.20;3.38;;;;;;;;;;5033168;28;20025;-65
2023/04/24 07:56:25;;;;;;;5.35;3.25;;;;;;;;;;5025526;28;20040;-65
2023/04/24 07:58:50;;;;;;;4.30;2.30;;;;;;;;;;5029930;28;20033;-66
2023/04/24 08:01:16;;;;;;;4.47;2.22;;;;;;;;;;5030329;28;20037;-66
2023/04/24 08:03:41;;;;;;;6.60;3.03;;;;;;;;;;5031184;28;20537;-65
2023/04/24 08:06:07;;;;;;;4.63;3.17;;;;;;;;;;5033749;28;20112;-65
2023/04/24 08:08:32;;;;;;;2.75;2.08;;;;;;;;;;5030198;28;20075;-65
2023/04/24 08:10:57;;;;;;;3.00;1.95;;;;;;;;;;5033678;28;20032;-65
2023/04/24 08:13:23;;;;;;;3.25;2.10;;;;;;;;;;5031835;28;20034;-64
2023/04/24 08:15:48;;;;;;;3.85;2.35;;;;;;;;;;5033765;28;20470;-64
2023/04/24 08:18:15;;;;;;;5.00;2.58;;;;;;;;;;5022392;28;20131;-64
2023/04/24 08:20:41;;;;;;;3.25;2.22;;;;;;;;;;5025170;28;20033;-65
2023/04/24 08:23:06;;;;;;;3.25;2.15;;;;;;;;;;5033012;28;20090;-65
2023/04/24 08:25:32;;;;;;;2.83;2.03;;;;;;;;;;5033344;28;20032;-66
2023/04/24 08:27:57;;;;;;;2.97;2.15;;;;;;;;;;5038189;28;20018;-65
2023/04/24 08:30:23;;;;;;;4.35;2.60;;;;;;;;;;5022366;28;20578;-66
2023/04/24 08:32:48;;;;;;;3.90;2.28;;;;;;;;;;5028678;28;20116;-65
2023/04/24 08:35:14;;;;;;;2.58;1.75;;;;;;;;;;5013650;28;20034;-67
2023/04/24 08:37:39;;;;;;;3.13;1.70;;;;;;;;;;5028505;28;20228;-62
2023/04/24 08:40:15;;;;;;;2.65;1.80;;;;;;;;;;5030593;28;20084;-64
2023/04/24 08:42:44;;;;;;;3.60;2.35;;;;;;;;;;5032293;28;20152;-65
2023/04/24 08:45:11;;;;;;;3.45;2.25;;;;;;;;;;5032477;28;20044;-68
2023/04/24 08:47:38;;;;;;;5.45;2.00;;;;;;;;;;5027625;28;20056;-66
2023/04/24 08:50:05;;;;;;;4.15;2.70;;;;;;;;;;5033593;28;20034;-65
2023/04/24 08:52:32;;;;;;;3.25;2.28;;;;;;;;;;5030155;28;20025;-64
2023/04/24 08:55:00;;;;;;;4.32;2.17;;;;;;;;;;5033126;28;20026;-66
2023/04/24 08:57:26;;;;;;;3.90;2.70;;;;;;;;;;5028899;28;20037;-65
2023/04/24 08:59:53;;;;;;;5.40;3.28;;;;;;;;;;5031492;28;20055;-64
2023/04/24 09:02:18;;;;;;;5.18;3.60;;;;;;;;;;5029517;28;20148;-64
2023/04/24 09:04:45;;;;;;;7.10;3.40;;;;;;;;;;5029403;28;20454;-64
2023/04/24 09:07:14;;;;;;;5.38;3.65;;;;;;;;;;5026505;28;20065;-65
2023/04/24 09:09:41;;;;;;;7.35;4.75;;;;;;;;;;5027026;28;20044;-64
2023/04/24 09:12:09;;;;;;;7.60;4.78;;;;;;;;;;5032117;28;20104;-65
2023/04/24 09:14:36;;;;;;;7.65;5.07;;;;;;;;;;5027072;28;20035;-63
2023/04/24 09:17:01;;;;;;;6.65;4.35;;;;;;;;;;5033357;28;20124;-65
2023/04/24 09:19:27;;;;;;;8.15;5.00;;;;;;;;;;5029738;28;20460;-64
2023/04/24 09:21:53;;;;;;;6.90;4.03;;;;;;;;;;5032573;28;20037;-66
2023/04/24 09:24:22;;;;;;;9.93;5.53;;;;;;;;;;5031609;28;20420;-66
2023/04/24 09:26:48;;;;;;;4.63;3.15;;;;;;;;;;5030440;28;20029;-65
2023/04/24 09:29:18;;;;;;;9.48;5.88;;;;;;;;;;5027150;28;20476;-66
2023/04/24 09:31:45;;;;;;;8.77;5.60;;;;;;;;;;5019096;28;20025;-64
2023/04/24 09:34:11;;;;;;;7.22;5.10;;;;;;;;;;5029526;28;20450;-65
2023/04/24 09:36:38;;;;;;;4.70;3.20;;;;;;;;;;5029543;28;20049;-64
2023/04/24 09:39:07;;;;;;;5.60;3.50;;;;;;;;;;5029156;28;20061;-63
2023/04/24 09:41:33;;;;;;;5.05;2.90;;;;;;;;;;5031873;28;20084;-63
2023/04/24 09:44:14;;;;;;;6.57;3.67;;;;;;;;;;5031622;28;20029;-63
2023/04/24 09:46:41;;;;;;;6.75;4.22;;;;;;;;;;5031437;28;20037;-64
2023/04/24 09:49:15;;;;;;;5.30;3.35;;;;;;;;;;5028257;28;20044;-64
2023/04/24 09:51:41;;;;;;;4.38;2.83;;;;;;;;;;5019784;28;20034;-65
2023/04/24 09:54:17;;;;;;;3.45;2.40;;;;;;;;;;5030735;28;20040;-64
2023/04/24 09:56:45;;;;;;;3.22;2.00;;;;;;;;;;5031107;28;20056;-64
2023/04/24 09:59:11;;;;;;;1.73;1.60;;;;;;;;;;5029738;28;20041;-64
2023/04/24 10:01:38;;;;;;;2.70;2.05;;;;;;;;;;5030994;28;20075;-67
2023/04/24 10:04:04;;;;;;;3.45;2.15;;;;;;;;;;5029658;28;20034;-64
2023/04/24 10:06:35;;;;;;;3.92;2.20;;;;;;;;;;5014684;28;20036;-67
2023/04/24 10:09:03;;;;;;;6.03;3.22;;;;;;;;;;5023623;28;20084;-67
2023/04/24 10:11:30;;;;;;;5.40;3.47;;;;;;;;;;5030212;28;20044;-67
2023/04/24 10:13:57;;;;;;;5.82;3.42;;;;;;;;;;5035351;28;20466;-63
2023/04/24 10:16:23;;;;;;;8.48;4.15;;;;;;;;;;5036642;28;20128;-63
2023/04/24 10:18:49;;;;;;;6.88;4.38;;;;;;;;;;5031227;28;20037;-63
2023/04/24 10:21:15;;;;;;;6.85;4.05;;;;;;;;;;5030079;28;20124;-65
2023/04/24 10:23:41;;;;;;;5.97;3.03;;;;;;;;;;5030678;28;20029;-64
2023/04/24 10:26:09;;;;;;;6.50;4.05;;;;;;;;;;5029711;28;20104;-63
2023/04/24 10:28:36;;;;;;;6.85;3.85;;;;;;;;;;5030829;28;20082;-64
2023/04/24 10:31:02;;;;;;;7.28;4.40;;;;;;;;;;5029502;28;20160;-65
2023/04/24 10:33:30;;;;;;;6.55;3.42;;;;;;;;;;5031251;28;20112;-64
2023/04/24 10:35:58;;;;;;;7.40;3.95;;;;;;;;;;5028595;28;20753;-64
2023/04/24 10:38:26;;;;;;;8.07;4.05;;;;;;;;;;5017943;28;20045;-63
2023/04/24 10:40:57;;;;;;;7.82;4.20;;;;;;;;;;5031718;28;20116;-66
2023/04/24 10:43:22;;;;;;;;;;;;;;;;;;5031366;28;20044;-61
2023/04/24 10:46:07;;;;;;;10.93;6.32;;;;;;;;;;5031247;28;20367;-64
2023/04/24 10:48:33;;;;;;;10.40;5.07;;;;;;;;;;5031086;28;20025;-65
2023/04/24 10:50:58;;;;;;;10.00;5.60;;;;;;;;;;5014682;28;20058;-67
2023/04/24 10:53:27;;;;;;;10.00;5.38;;;;;;;;;;5024993;28;20492;-65
2023/04/24 10:56:02;;;;;;;11.68;5.95;;;;;;;;;;5029225;28;20034;-66
2023/04/24 10:58:57;;;;;;;7.32;4.55;;;;;;;;;;5029496;28;20025;-66
2023/04/24 11:01:28;;;;;;;11.27;5.68;;;;;;;;;;5004378;28;20046;-67
2023/04/24 11:04:02;;;;;;;8.27;4.70;;;;;;;;;;5022479;28;20060;-67
2023/04/24 11:06:36;;;;;;;12.32;5.20;;;;;;;;;;5027731;28;20047;-64
2023/04/24 11:09:12;;;;;;;9.40;3.92;;;;;;;;;;5023010;28;20120;-64
2023/04/24 11:11:44;;;;;;;9.77;4.20;;;;;;;;;;5022413;28;20041;-65
2023/04/24 11:14:10;;;;;;;12.63;4.75;;;;;;;;;;5018338;28;20026;-65
2023/04/24 11:16:52;;;;;;;13.18;5.60;;;;;;;;;;5028661;28;20040;-66
2023/04/24 11:19:25;;;;;;;20.17;5.00;;;;;;;;;;5030506;28;20101;-65
2023/04/24 11:22:01;;;;;;;15.40;5.43;;;;;;;;;;5028643;28;20044;-64
2023/04/24 11:24:38;;;;;;;15.30;5.10;;;;;;;;;;5030928;28;20033;-65
2023/04/24 11:27:04;;;;;;;9.10;5.10;;;;;;;;;;5030622;28;20480;-66
2023/04/24 11:29:56;;;;;;;8.77;4.30;;;;;;;;;;5024226;28;20036;-67
2023/04/24 11:32:35;;;;;;;12.57;5.57;;;;;;;;;;5013899;28;20353;-67
2023/04/24 11:35:18;;;;;;;14.48;6.10;;;;;;;;;;5045396;28;20029;-66
2023/04/24 11:37:48;;;;;;;11.75;6.50;;;;;;;;;;5023934;28;20500;-66
2023/04/24 11:40:15;;;;;;;15.43;5.60;;;;;;;;;;5022771;28;20488;-64
2023/04/24 11:42:45;;;;;;;16.63;6.38;;;;;;;;;;5017393;28;20042;-65
2023/04/24 11:45:15;;;;;;;12.83;4.87;;;;;;;;;;5034988;28;20071;-64
2023/04/24 11:47:42;;;;;;;12.38;5.65;;;;;;;;;;5022762;28;20299;-65
2023/04/24 11:50:13;;;;;;;17.10;5.55;;;;;;;;;;5021866;28;20037;-67
2023/04/24 11:52:43;;;;;;;12.90;4.57;;;;;;;;;;5027950;28;20033;-63
2023/04/24 11:55:15;;;;;;;9.90;4.72;;;;;;;;;;5029072;28;20041;-66
2023/04/24 11:57:51;;;;;;;11.75;5.40;;;;;;;;;;5023670;28;20033;-67
2023/04/24 12:00:22;;;;;;;11.43;4.75;;;;;;;;;;5018513;28;20380;-67
2023/04/24 12:02:49;;;;;;;13.07;4.72;;;;;;;;;;5022046;28;20536;-64
2023/04/24 12:05:27;;;;;;;5.07;3.20;;;;;;;;;;5029260;28;20038;-64
2023/04/24 12:07:53;;;;;;;9.90;4.30;;;;;;;;;;5033476;28;20043;-67
2023/04/24 12:10:22;;;;;;;12.80;4.60;;;;;;;;;;5028485;28;20133;-64
2023/04/24 12:12:51;;;;;;;9.93;3.35;;;;;;;;;;5029979;28;20117;-66
2023/04/24 12:15:17;;;;;;;9.32;3.47;;;;;;;;;;5030729;28;20088;-65
2023/04/24 12:17:43;;;;;;;9.95;3.70;;;;;;;;;;5012983;28;20033;-63
2023/04/24 12:20:09;;;;;;;6.70;2.95;;;;;;;;;;5023182;28;20487;-67
2023/04/24 12:22:53;;;;;;;5.82;2.58;;;;;;;;;;5026824;28;20092;-67
2023/04/24 12:25:20;;;;;;;6.22;2.70;;;;;;;;;;5015262;28;20037;-67
2023/04/24 12:27:51;;;;;;;6.63;2.28;;;;;;;;;;5014696;28;20078;-68
2023/04/24 12:30:17;;;;;;;4.95;2.75;;;;;;;;;;5015058;28;20033;-69
2023/04/24 12:32:47;;;;;;;8.10;3.13;;;;;;;;;;5022301;28;20104;-66
2023/04/24 12:35:20;;;;;;;11.50;2.70;;;;;;;;;;5027206;28;20025;-68
2023/04/24 12:37:45;;;;;;;12.52;3.22;;;;;;;;;;5026873;28;20408;-66
2023/04/24 12:40:12;;;;;;;7.85;2.92;;;;;;;;;;5024954;28;20460;-66
2023/04/24 12:42:46;;;;;;;8.05;2.80;;;;;;;;;;5027257;28;20060;-63
2023/04/24 12:45:12;;;;;;;5.80;2.63;;;;;;;;;;5032351;28;20029;-66
2023/04/24 12:47:39;;;;;;;6.35;2.53;;;;;;;;;;5022509;28;20087;-66
2023/04/24 12:50:07;;;;;;;3.60;2.25;;;;;;;;;;5026257;28;20468;-65
2023/04/24 12:52:33;;;;;;;7.65;3.00;;;;;;;;;;5019891;28;20491;-65
2023/04/24 12:55:00;;;;;;;4.65;2.35;;;;;;;;;;5013921;28;20068;-65
2023/04/24 12:57:27;;;;;;;7.13;2.83;;;;;;;;;;5021221;28;20041;-66
2023/04/24 12:59:58;;;;;;;6.63;3.10;;;;;;;;;;5025496;28;20037;-65
2023/04/24 13:02:27;;;;;;;6.80;3.03;;;;;;;;;;5020951;28;20041;-63
2023/04/24 13:04:53;;;;;;;4.57;2.13;;;;;;;;;;5025143;28;20623;-64
2023/04/24 13:07:19;;;;;;;4.93;2.25;;;;;;;;;;5018279;28;20038;-64
2023/04/24 13:09:45;;;;;;;5.70;2.38;;;;;;;;;;5011528;28;20032;-63
2023/04/24 13:12:11;;;;;;;5.88;2.65;;;;;;;;;;5023276;28;20231;-62
2023/04/24 13:14:37;;;;;;;6.43;2.28;;;;;;;;;;5020626;28;20494;-62
2023/04/24 13:17:03;;;;;;;6.93;3.50;;;;;;;;;;5025498;28;20033;-63
2023/04/24 13:19:29;;;;;;;9.27;2.25;;;;;;;;;;5029154;28;20029;-65
2023/04/24 13:21:56;;;;;;;7.63;3.05;;;;;;;;;;5016875;28;20045;-63
2023/04/24 13:24:25;;;;;;;5.35;2.40;;;;;;;;;;5012895;28;20116;-63
2023/04/24 13:26:54;;;;;;;4.25;2.20;;;;;;;;;;5011136;28;20049;-63
2023/04/24 13:29:19;;;;;;;3.50;2.00;;;;;;;;;;5014978;28;20094;-66
2023/04/24 13:31:46;;;;;;;4.88;2.38;;;;;;;;;;5023003;28;20041;-68
2023/04/24 13:34:13;;;;;;;5.18;2.22;;;;;;;;;;5022551;28;20034;-68
2023/04/24 13:36:38;;;;;;;2.13;1.75;;;;;;;;;;5024572;28;20064;-66
2023/04/24 13:39:05;;;;;;;7.35;2.65;;;;;;;;;;5011792;28;20037;-65
2023/04/24 13:41:32;;;;;;;4.72;2.17;;;;;;;;;;5025647;28;20480;-65
2023/04/24 13:43:57;;;;;;;4.32;2.30;;;;;;;;;;5009975;28;20530;-65
2023/04/24 13:46:22;;;;;;;3.85;2.10;;;;;;;;;;5025482;28;20112;-66
2023/04/24 13:48:48;;;;;;;6.18;2.83;;;;;;;;;;5015579;28;20471;-65
2023/04/24 13:51:14;;;;;;;3.90;2.70;;;;;;;;;;5024178;28;20037;-64
2023/04/24 13:53:40;;;;;;;4.65;2.50;;;;;;;;;;5019601;28;20227;-67
2023/04/24 13:56:05;;;;;;;4.45;2.00;;;;;;;;;;5021563;28;20510;-66
2023/04/24 13:58:32;;;;;;;4.00;2.60;;;;;;;;;;5013708;28;21045;-65
2023/04/24 14:00:58;;;;;;;3.88;2.22;;;;;;;;;;5027306;28;20379;-65
2023/04/24 14:03:24;;;;;;;3.03;1.90;;;;;;;;;;5010904;28;20037;-65
2023/04/24 14:05:50;;;;;;;3.38;2.00;;;;;;;;;;5021304;28;20112;-64
2023/04/24 14:08:16;;;;;;;3.67;2.20;;;;;;;;;;5038663;28;20097;-63
2023/04/24 14:10:45;;;;;;;4.22;2.25;;;;;;;;;;5040323;28;20034;-65
2023/04/24 14:13:10;;;;;;;4.32;2.70;;;;;;;;;;5023334;28;20215;-67
2023/04/24 14:15:36;;;;;;;6.13;2.90;;;;;;;;;;5022214;28;20113;-65
2023/04/24 14:18:02;;;;;;;4.47;2.53;;;;;;;;;;5012039;28;20030;-66
2023/04/24 14:20:28;;;;;;;4.90;2.58;;;;;;;;;;5025929;28;20062;-67
2023/04/24 14:22:53;;;;;;;5.85;3.00;;;;;;;;;;5010415;28;20371;-67
2023/04/24 14:25:19;;;;;;;5.45;2.50;;;;;;;;;;5025710;28;20451;-67
2023/04/24 14:27:45;;;;;;;4.95;2.40;;;;;;;;;;5015080;28;20046;-66
2023/04/24 14:30:12;;;;;;;6.75;2.88;;;;;;;;;;5009522;28;20030;-67
2023/04/24 14:32:38;;;;;;;6.43;2.72;;;;;;;;;;5018288;28;20060;-65
2023/04/24 14:35:06;;;;;;;6.10;2.85;;;;;;;;;;5028022;28;20045;-65
2023/04/24 14:37:31;;;;;;;5.47;2.20;;;;;;;;;;5035473;28;20064;-65